createdAt,value
2022-08-03T00:02:27.857Z,2.92
2022-08-03T00:04:57.942Z,3.00
2022-08-03T00:07:50.007Z,2.70
2022-08-03T00:10:31.158Z,3.00
2022-08-03T00:12:59.943Z,3.08
2022-08-03T00:15:32.774Z,2.65
2022-08-03T00:18:00.814Z,3.15
2022-08-03T00:20:32.781Z,3.60
2022-08-03T00:23:11.867Z,2.78
2022-08-03T00:25:40.410Z,3.53
2022-08-03T00:28:28.946Z,3.33
2022-08-03T00:31:05.568Z,3.28
2022-08-03T00:33:58.838Z,3.75
2022-08-03T00:36:29.627Z,3.65
2022-08-03T00:38:59.551Z,3.35
2022-08-03T00:41:55.522Z,3.50
2022-08-03T00:44:45.677Z,3.42
2022-08-03T00:47:13.932Z,3.30
2022-08-03T00:49:44.488Z,3.22
2022-08-03T00:52:36.731Z,3.20
2022-08-03T00:55:06.084Z,3.60
2022-08-03T00:57:37.043Z,3.70
2022-08-03T01:00:13.465Z,3.40
2022-08-03T01:02:56.119Z,3.13
2022-08-03T01:05:27.558Z,3.58
2022-08-03T01:08:18.943Z,3.72
2022-08-03T01:11:16.643Z,4.03
2022-08-03T01:14:18.985Z,4.00
2022-08-03T01:17:22.256Z,3.65
2022-08-03T01:19:56.581Z,4.00
2022-08-03T01:22:41.909Z,4.05
2022-08-03T01:25:42.544Z,4.53
2022-08-03T01:28:25.260Z,3.95
2022-08-03T01:33:49.238Z,3.88
2022-08-03T01:36:33.769Z,4.00
2022-08-03T01:39:09.765Z,4.30
2022-08-03T01:42:09.031Z,4.18
2022-08-03T01:44:42.913Z,3.85
2022-08-03T01:47:12.895Z,4.05
2022-08-03T01:49:46.282Z,4.30
2022-08-03T01:52:19.721Z,4.15
2022-08-03T01:54:53.012Z,3.85
2022-08-03T01:57:22.600Z,4.72
2022-08-03T01:59:52.899Z,4.32
2022-08-03T02:02:38.125Z,4.18
2022-08-03T02:05:10.967Z,4.63
2022-08-03T02:07:52.032Z,4.35
2022-08-03T02:10:35.394Z,4.85
2022-08-03T02:13:05.493Z,4.55
2022-08-03T02:15:39.593Z,4.60
2022-08-03T02:18:11.677Z,4.28
2022-08-03T02:20:57.705Z,4.28
2022-08-03T02:23:25.320Z,4.28
2022-08-03T02:26:03.104Z,5.15
2022-08-03T02:28:35.939Z,4.60
2022-08-03T02:31:06.367Z,5.32
2022-08-03T02:33:56.575Z,4.40
2022-08-03T02:36:27.366Z,4.88
2022-08-03T02:38:58.811Z,4.75
2022-08-03T02:42:03.159Z,5.32
2022-08-03T02:44:33.207Z,4.90
2022-08-03T02:47:11.501Z,4.55
2022-08-03T02:49:50.279Z,5.00
2022-08-03T02:52:21.706Z,5.38
2022-08-03T02:55:14.756Z,5.63
2022-08-03T02:57:45.525Z,5.55
2022-08-03T03:00:27.642Z,5.45
2022-08-03T03:02:58.482Z,5.28
2022-08-03T03:05:53.026Z,5.00
2022-08-03T03:08:20.923Z,5.53
2022-08-03T03:10:56.798Z,5.10
2022-08-03T03:13:25.275Z,5.95
2022-08-03T03:15:55.059Z,5.82
2022-08-03T03:18:34.183Z,5.80
2022-08-03T03:21:04.745Z,5.95
2022-08-03T03:23:34.791Z,5.20
2022-08-03T03:26:02.584Z,5.25
2022-08-03T03:28:31.055Z,5.55
2022-08-03T03:30:59.130Z,5.40
2022-08-03T03:33:37.576Z,5.78
2022-08-03T03:36:06.698Z,5.70
2022-08-03T03:38:34.611Z,6.45
2022-08-03T03:41:01.892Z,5.93
2022-08-03T03:43:29.747Z,5.88
2022-08-03T03:46:00.047Z,5.38
2022-08-03T03:48:29.889Z,5.65
2022-08-03T03:51:00.792Z,5.72
2022-08-03T03:53:27.755Z,5.45
2022-08-03T03:55:58.926Z,6.70
2022-08-03T03:58:30.922Z,5.80
2022-08-03T04:01:08.977Z,5.47
2022-08-03T04:03:40.978Z,6.55
2022-08-03T04:06:35.183Z,5.35
2022-08-03T04:09:37.059Z,5.63
2022-08-03T04:12:06.997Z,5.93
2022-08-03T04:14:52.072Z,6.25
2022-08-03T04:17:22.971Z,5.90
2022-08-03T04:19:54.592Z,6.28
2022-08-03T04:22:27.388Z,5.63
2022-08-03T04:25:09.655Z,5.65
2022-08-03T04:30:07.240Z,7.32
2022-08-03T04:32:35.847Z,6.55
2022-08-03T04:35:22.598Z,6.30
2022-08-03T04:38:17.142Z,6.43
2022-08-03T04:40:46.902Z,9.68
2022-08-03T04:43:18.873Z,7.07
2022-08-03T04:45:51.988Z,6.22
2022-08-03T04:48:23.149Z,5.93
2022-08-03T04:50:52.461Z,6.53
2022-08-03T04:55:53.387Z,6.10
2022-08-03T04:58:20.539Z,6.22
2022-08-03T05:00:51.116Z,6.78
2022-08-03T05:03:25.223Z,6.45
2022-08-03T05:06:01.989Z,6.50
2022-08-03T05:08:46.442Z,6.00
2022-08-03T05:11:15.802Z,6.40
2022-08-03T05:14:09.773Z,6.35
2022-08-03T05:16:36.989Z,5.97
2022-08-03T05:19:06.799Z,5.90
2022-08-03T05:21:52.321Z,6.30
2022-08-03T05:24:20.687Z,5.60
2022-08-03T05:26:47.733Z,5.95
2022-08-03T05:29:14.863Z,5.55
2022-08-03T05:31:41.863Z,6.13
2022-08-03T05:34:10.087Z,6.00
2022-08-03T05:36:37.151Z,5.65
2022-08-03T05:39:18.164Z,5.65
2022-08-03T05:41:45.384Z,5.40
2022-08-03T05:44:12.364Z,5.80
2022-08-03T05:46:41.019Z,6.45
2022-08-03T05:49:09.119Z,5.38
2022-08-03T05:51:42.090Z,5.63
2022-08-03T05:54:12.442Z,5.07
2022-08-03T05:56:41.094Z,5.35
2022-08-03T05:59:35.814Z,4.97
2022-08-03T06:02:08.484Z,5.50
2022-08-03T06:04:36.441Z,5.28
2022-08-03T06:07:09.626Z,4.80
2022-08-03T06:10:37.650Z,4.93
2022-08-03T06:12:24.426Z,4.65
2022-08-03T06:14:51.600Z,5.13
2022-08-03T06:17:19.514Z,4.72
2022-08-03T06:19:47.106Z,4.80
2022-08-03T06:22:14.376Z,3.95
2022-08-03T06:24:53.260Z,4.70
2022-08-03T06:27:29.345Z,4.10
2022-08-03T06:30:12.204Z,3.65
2022-08-03T06:32:40.628Z,3.47
2022-08-03T06:35:08.757Z,3.92
2022-08-03T06:37:50.517Z,4.13
2022-08-03T06:40:34.091Z,3.55
2022-08-03T06:43:09.517Z,3.58
2022-08-03T06:45:39.632Z,3.38
2022-08-03T06:48:28.040Z,3.45
2022-08-03T06:50:56.740Z,3.03
2022-08-03T06:53:35.866Z,3.25
2022-08-03T06:56:06.385Z,3.42
2022-08-03T06:58:37.832Z,2.90
2022-08-03T07:01:05.828Z,2.70
2022-08-03T07:03:34.475Z,2.70
2022-08-03T07:06:07.538Z,2.92
2022-08-03T07:08:35.802Z,2.65
2022-08-03T07:11:03.189Z,2.85
2022-08-03T07:13:31.273Z,2.80
2022-08-03T07:15:58.913Z,2.97
2022-08-03T07:18:30.093Z,2.38
2022-08-03T07:21:02.243Z,2.40
2022-08-03T07:26:11.957Z,2.35
2022-08-03T07:28:52.947Z,2.33
2022-08-03T07:31:23.510Z,2.20
2022-08-03T07:34:04.252Z,2.25
2022-08-03T07:36:32.510Z,1.95
2022-08-03T07:39:15.868Z,2.10
2022-08-03T07:41:45.146Z,2.05
2022-08-03T07:44:41.050Z,2.00
2022-08-03T07:47:08.359Z,2.28
2022-08-03T07:49:44.564Z,2.13
2022-08-03T07:52:37.283Z,2.20
2022-08-03T07:55:06.769Z,2.67
2022-08-03T07:58:12.581Z,2.47
2022-08-03T08:00:40.205Z,2.22
2022-08-03T08:03:13.846Z,1.95
2022-08-03T08:05:42.839Z,2.25
2022-08-03T08:08:15.892Z,2.42
2022-08-03T08:10:58.357Z,2.38
2022-08-03T08:13:31.820Z,2.58
2022-08-03T08:15:58.666Z,2.33
2022-08-03T08:18:32.673Z,2.33
2022-08-03T08:21:06.138Z,2.35
2022-08-03T08:23:44.809Z,2.20
2022-08-03T08:26:19.418Z,2.22
2022-08-03T08:29:07.482Z,2.30
2022-08-03T08:31:48.096Z,2.60
2022-08-03T08:34:17.268Z,2.70
2022-08-03T08:36:46.035Z,2.35
2022-08-03T08:39:19.167Z,1.80
2022-08-03T08:41:53.184Z,2.08
2022-08-03T08:47:23.599Z,2.47
2022-08-03T08:50:09.716Z,2.50
2022-08-03T08:52:46.773Z,2.20
2022-08-03T08:55:24.122Z,2.00
2022-08-03T08:58:00.190Z,2.67
2022-08-03T09:00:27.205Z,2.00
2022-08-03T09:03:02.205Z,2.40
2022-08-03T09:05:54.950Z,2.30
2022-08-03T09:08:26.279Z,2.35
2022-08-03T09:11:57.759Z,2.22
2022-08-03T09:17:17.272Z,2.38
2022-08-03T09:20:10.618Z,2.10
2022-08-03T09:22:57.751Z,1.98
2022-08-03T09:25:36.815Z,2.08
2022-08-03T09:28:07.221Z,2.22
2022-08-03T09:33:17.342Z,1.90
2022-08-03T09:35:54.212Z,1.65
2022-08-03T09:38:29.076Z,1.98
2022-08-03T09:41:00.962Z,1.90
2022-08-03T09:43:45.763Z,1.77
2022-08-03T09:46:12.867Z,1.85
2022-08-03T09:48:41.166Z,1.90
2022-08-03T09:51:14.467Z,2.10
2022-08-03T09:54:12.648Z,1.63
2022-08-03T09:56:47.520Z,1.70
2022-08-03T09:59:25.419Z,1.50
2022-08-03T10:01:54.438Z,1.80
2022-08-03T10:04:23.219Z,1.90
2022-08-03T10:07:13.684Z,1.80
2022-08-03T10:09:54.520Z,1.60
2022-08-03T10:12:22.861Z,1.67
2022-08-03T10:14:52.757Z,1.95
2022-08-03T10:17:23.754Z,1.95
2022-08-03T10:19:52.616Z,1.80
2022-08-03T10:22:34.502Z,1.92
2022-08-03T10:27:42.085Z,1.65
2022-08-03T10:30:18.516Z,1.88
2022-08-03T10:33:01.735Z,1.83
2022-08-03T10:35:32.052Z,2.33
2022-08-03T10:38:26.261Z,2.00
2022-08-03T10:41:00.408Z,1.70
2022-08-03T10:43:38.198Z,1.50
2022-08-03T10:46:07.501Z,1.42
2022-08-03T10:48:36.212Z,1.50
2022-08-03T10:51:40.927Z,1.27
2022-08-03T10:54:08.119Z,1.33
2022-08-03T10:57:13.621Z,1.30
2022-08-03T11:00:07.067Z,1.25
2022-08-03T11:03:15.202Z,1.77
2022-08-03T11:05:49.292Z,1.70
2022-08-03T11:08:43.849Z,2.13
2022-08-03T11:11:19.607Z,1.52
2022-08-03T11:14:16.530Z,1.30
2022-08-03T11:16:57.084Z,1.50
2022-08-03T11:19:28.898Z,1.30
2022-08-03T11:22:14.183Z,1.73
2022-08-03T11:24:42.871Z,1.40
2022-08-03T11:27:35.392Z,1.58
2022-08-03T11:30:31.734Z,1.50
2022-08-03T11:33:02.273Z,1.50
2022-08-03T11:36:02.806Z,1.55
2022-08-03T11:38:31.771Z,1.80
2022-08-03T11:41:59.608Z,1.80
2022-08-03T11:44:47.513Z,1.95
2022-08-03T11:47:20.152Z,1.50
2022-08-03T11:50:04.606Z,1.50
2022-08-03T11:52:36.857Z,1.67
2022-08-03T11:55:12.877Z,1.80
2022-08-03T11:59:01.554Z,1.50
2022-08-03T12:00:35.986Z,4.47
2022-08-03T12:03:15.005Z,1.48
2022-08-03T12:06:02.955Z,2.25
2022-08-03T12:08:36.064Z,1.67
2022-08-03T12:11:07.562Z,1.23
2022-08-03T12:14:44.034Z,1.50
2022-08-03T12:16:29.838Z,1.30
2022-08-03T12:19:08.326Z,1.27
2022-08-03T12:21:35.349Z,1.65
2022-08-03T12:24:05.970Z,1.50
2022-08-03T12:26:59.195Z,1.38
2022-08-03T12:29:30.320Z,2.35
2022-08-03T12:32:01.656Z,1.40
2022-08-03T12:34:50.416Z,1.30
2022-08-03T12:37:26.222Z,1.77
2022-08-03T12:40:00.608Z,1.95
2022-08-03T12:42:38.102Z,1.48
2022-08-03T12:45:26.781Z,1.90
2022-08-03T12:48:14.681Z,1.48
2022-08-03T12:50:41.818Z,1.70
2022-08-03T12:53:29.239Z,2.15
2022-08-03T12:56:05.230Z,1.75
2022-08-03T12:58:44.573Z,1.60
2022-08-03T13:01:37.993Z,1.30
2022-08-03T13:04:33.812Z,1.48
2022-08-03T13:07:06.625Z,1.50
2022-08-03T13:09:54.473Z,1.40
2022-08-03T13:12:32.833Z,1.50
2022-08-03T13:15:02.341Z,1.35
2022-08-03T13:17:29.031Z,1.30
2022-08-03T13:20:07.283Z,1.52
2022-08-03T13:22:35.754Z,1.20
2022-08-03T13:25:21.412Z,1.70
2022-08-03T13:28:05.085Z,1.50
2022-08-03T13:30:34.706Z,1.50
2022-08-03T13:33:09.199Z,1.58
2022-08-03T13:35:36.103Z,1.30
2022-08-03T13:38:04.765Z,1.40
2022-08-03T13:40:36.748Z,1.42
2022-08-03T13:43:17.119Z,1.52
2022-08-03T13:45:54.898Z,1.63
2022-08-03T13:48:35.963Z,1.45
2022-08-03T13:51:22.208Z,1.58
2022-08-03T13:54:00.039Z,1.50
2022-08-03T13:57:00.358Z,1.40
2022-08-03T13:59:53.419Z,1.70
2022-08-03T14:02:22.165Z,1.90
2022-08-03T14:04:54.967Z,1.40
2022-08-03T14:07:21.919Z,1.40
2022-08-03T14:09:51.878Z,1.40
2022-08-03T14:12:23.031Z,1.48
2022-08-03T14:14:50.250Z,1.38
2022-08-03T14:17:18.980Z,1.85
2022-08-03T14:19:53.561Z,1.50
2022-08-03T14:22:30.209Z,1.70
2022-08-03T14:24:58.199Z,1.10
2022-08-03T14:27:28.478Z,1.30
2022-08-03T14:30:04.302Z,1.35
2022-08-03T14:32:32.753Z,1.83
2022-08-03T14:35:00.895Z,1.70
2022-08-03T14:37:36.882Z,1.80
2022-08-03T14:40:10.470Z,1.60
2022-08-03T14:42:39.465Z,1.60
2022-08-03T14:45:09.414Z,1.30
2022-08-03T14:50:24.947Z,1.30
2022-08-03T14:50:42.091Z,1.67
2022-08-03T14:56:10.138Z,1.52
2022-08-03T14:58:37.543Z,1.67
2022-08-03T15:02:04.510Z,1.70
2022-08-03T15:03:56.231Z,1.20
2022-08-03T15:06:23.876Z,1.83
2022-08-03T15:09:21.597Z,1.20
2022-08-03T15:11:46.807Z,1.75
2022-08-03T15:14:14.820Z,1.40
2022-08-03T15:16:42.393Z,1.58
2022-08-03T15:20:00.264Z,1.70
2022-08-03T15:21:56.391Z,1.67
2022-08-03T15:24:25.296Z,1.67
2022-08-03T15:26:58.615Z,1.63
2022-08-03T15:30:05.377Z,1.80
2022-08-03T15:32:13.386Z,1.40
2022-08-03T15:35:01.259Z,1.75
2022-08-03T15:37:29.010Z,2.22
2022-08-03T15:40:18.667Z,1.65
2022-08-03T15:42:46.905Z,1.30
2022-08-03T15:45:26.552Z,1.40
2022-08-03T15:48:17.570Z,1.83
2022-08-03T15:51:02.859Z,1.70
2022-08-03T15:54:03.167Z,1.70
2022-08-03T15:56:32.591Z,1.55
2022-08-03T15:59:12.822Z,1.55
2022-08-03T16:01:48.774Z,1.42
2022-08-03T16:04:17.780Z,1.27
2022-08-03T16:06:44.610Z,1.42
2022-08-03T16:09:23.369Z,1.50
2022-08-03T16:15:14.899Z,1.77
2022-08-03T16:17:44.132Z,1.47
2022-08-03T16:20:31.656Z,1.30
2022-08-03T16:23:11.498Z,1.67
2022-08-03T16:25:49.518Z,1.67
2022-08-03T16:28:21.521Z,1.42
2022-08-03T16:31:00.543Z,1.60
2022-08-03T16:33:38.167Z,1.77
2022-08-03T16:36:34.670Z,2.08
2022-08-03T16:39:13.848Z,1.40
2022-08-03T16:42:00.691Z,1.73
2022-08-03T16:44:33.414Z,2.00
2022-08-03T16:50:00.390Z,2.03
2022-08-03T16:52:29.207Z,1.40
2022-08-03T16:54:56.337Z,1.75
2022-08-03T16:57:58.687Z,1.83
2022-08-03T17:00:32.958Z,1.85
2022-08-03T17:03:04.462Z,1.95
2022-08-03T17:05:46.864Z,1.70
2022-08-03T17:08:15.713Z,1.58
2022-08-03T17:10:45.648Z,1.90
2022-08-03T17:13:27.698Z,1.70
2022-08-03T17:16:10.787Z,1.50
2022-08-03T17:18:55.516Z,1.65
2022-08-03T17:21:34.358Z,2.10
2022-08-03T17:24:55.646Z,1.58
2022-08-03T17:28:48.617Z,1.50
2022-08-03T17:30:57.671Z,1.30
2022-08-03T17:33:35.320Z,1.67
2022-08-03T17:36:37.001Z,1.52
2022-08-03T18:03:58.699Z,1.70
2022-08-03T18:06:31.393Z,1.50
2022-08-03T18:11:55.955Z,2.78
2022-08-03T18:14:57.801Z,10.35
2022-08-03T18:17:54.942Z,3.75
2022-08-03T18:20:34.812Z,3.17
2022-08-03T18:23:09.814Z,3.97
2022-08-03T18:25:50.012Z,3.22
2022-08-03T18:30:55.301Z,1.77
2022-08-03T18:34:18.879Z,1.80
2022-08-03T18:36:22.070Z,1.60
2022-08-03T18:39:04.184Z,1.48
2022-08-03T18:41:34.621Z,2.15
2022-08-03T18:44:08.519Z,1.40
2022-08-03T18:47:07.073Z,2.33
2022-08-03T18:49:40.178Z,1.55
2022-08-03T18:52:54.356Z,2.22
2022-08-03T18:55:35.686Z,1.60
2022-08-03T18:58:41.996Z,1.83
2022-08-03T19:01:59.641Z,2.10
2022-08-03T19:04:25.992Z,2.13
2022-08-03T19:07:00.915Z,2.40
2022-08-03T19:10:03.805Z,1.90
2022-08-03T19:16:23.551Z,2.08
2022-08-03T19:19:44.481Z,1.77
2022-08-03T19:22:22.599Z,2.22
2022-08-03T19:25:14.542Z,2.05
2022-08-03T19:44:02.072Z,3.03
2022-08-03T19:47:05.665Z,3.63
2022-08-03T19:56:05.869Z,4.13
2022-08-03T19:59:50.003Z,4.57
2022-08-03T20:02:26.360Z,3.10
2022-08-03T20:05:14.768Z,3.63
2022-08-03T20:08:12.069Z,2.50
2022-08-03T20:10:51.982Z,2.90
2022-08-03T20:13:30.724Z,2.50
2022-08-03T21:33:29.816Z,3.10
2022-08-03T21:55:01.278Z,2.70
2022-08-03T22:16:32.506Z,2.20
2022-08-03T22:19:00.766Z,2.75
2022-08-03T22:21:36.270Z,2.90
2022-08-03T22:24:05.802Z,2.70
2022-08-03T22:26:35.840Z,2.63
2022-08-03T22:29:08.645Z,2.80
2022-08-03T22:31:58.531Z,2.80
2022-08-03T22:34:27.507Z,2.88
2022-08-03T22:37:02.167Z,2.80
2022-08-03T22:39:30.900Z,3.20
2022-08-03T22:42:05.194Z,3.03
2022-08-03T22:44:32.775Z,2.70
2022-08-03T22:47:00.266Z,3.08
2022-08-03T22:49:30.413Z,2.80
2022-08-03T22:52:06.184Z,3.03
2022-08-03T22:54:33.740Z,2.90
2022-08-03T22:57:02.906Z,3.28
2022-08-03T22:59:39.128Z,2.92
2022-08-03T23:02:21.555Z,3.05
2022-08-03T23:04:56.702Z,2.95
2022-08-03T23:07:31.322Z,3.30
2022-08-03T23:10:01.051Z,2.70
2022-08-03T23:12:40.967Z,3.15
2022-08-03T23:15:12.977Z,2.75
2022-08-03T23:18:03.710Z,3.17
2022-08-03T23:20:33.184Z,2.78
2022-08-03T23:23:01.288Z,2.78
2022-08-03T23:25:55.815Z,3.05
2022-08-03T23:28:25.930Z,2.90
2022-08-03T23:30:54.484Z,3.10
2022-08-03T23:33:43.316Z,3.70
2022-08-03T23:36:31.158Z,3.05
2022-08-03T23:39:03.540Z,3.50
2022-08-03T23:41:32.699Z,2.97
2022-08-03T23:44:03.718Z,3.50
2022-08-03T23:46:32.164Z,3.10
2022-08-03T23:49:00.958Z,3.38
2022-08-03T23:51:31.014Z,2.92
2022-08-03T23:54:10.394Z,3.17
2022-08-03T23:56:54.480Z,3.47
2022-08-03T23:59:28.757Z,3.40
